Time;durP1;ratioP1;P1;durP2;ratioP2;P2;SDS_P1;SDS_P2;PMS_P1;PMS_P2;Temp;Humidity;BMP_temperature;BMP_pressure;BME280_temperature;BME280_humidity;BME280_pressure;Samples;Min_cycle;Max_cycle;Signal;HPM_P1;HPM_P2
2022/04/14 00:00:20;;;;;;;10.25;7.68;;;;;;;9.13;68.58;100706.06;4929929;29;20131;-73
2022/04/14 00:02:45;;;;;;;9.65;7.72;;;;;;;9.11;68.90;100707.81;4938912;29;20118;-73
2022/04/14 00:05:10;;;;;;;12.70;8.25;;;;;;;9.10;68.74;100700.81;4923972;29;20098;-73
2022/04/14 00:07:36;;;;;;;10.35;7.18;;;;;;;9.12;68.58;100709.59;4942474;29;20039;-73
2022/04/14 00:10:03;;;;;;;9.95;7.50;;;;;;;9.13;68.26;100706.06;4935083;29;20027;-74
2022/04/14 00:12:28;;;;;;;10.57;7.90;;;;;;;9.15;68.89;100693.81;4940087;29;20040;-74
2022/04/14 00:14:54;;;;;;;13.10;8.00;;;;;;;9.16;68.38;100692.91;4940613;29;20041;-73
2022/04/14 00:17:20;;;;;;;10.57;8.20;;;;;;;9.16;68.62;100694.69;4936418;29;20032;-74
2022/04/14 00:19:45;;;;;;;13.10;8.75;;;;;;;9.14;68.77;100685.88;4945472;29;20415;-73
2022/04/14 00:22:10;;;;;;;11.07;7.95;;;;;;;9.14;68.75;100692.06;4936364;29;20043;-74
2022/04/14 00:24:36;;;;;;;16.10;8.85;;;;;;;9.14;68.29;100696.41;4934562;29;20032;-73
2022/04/14 00:27:01;;;;;;;12.52;8.80;;;;;;;9.12;68.96;100708.72;4923158;29;20124;-73
2022/04/14 00:29:26;;;;;;;12.68;7.72;;;;;;;9.08;68.56;100702.56;4937750;29;20036;-74
2022/04/14 00:31:52;;;;;;;11.93;8.57;;;;;;;9.01;69.33;100700.75;4939872;29;20038;-73
2022/04/14 00:34:17;;;;;;;12.32;8.57;;;;;;;8.94;69.46;100704.28;4940933;29;20042;-73
2022/04/14 00:36:42;;;;;;;14.27;7.88;;;;;;;8.88;69.86;100697.25;4934452;29;20502;-73
2022/04/14 00:39:09;;;;;;;13.07;8.35;;;;;;;8.88;69.76;100704.25;4935029;29;20489;-76
2022/04/14 00:41:37;;;;;;;14.32;8.55;;;;;;;8.86;69.77;100712.16;4937707;29;20398;-75
2022/04/14 00:44:03;;;;;;;10.57;8.23;;;;;;;8.88;69.67;100713.03;4934431;29;20042;-75
2022/04/14 00:46:28;;;;;;;10.93;7.68;;;;;;;8.88;69.81;100706.88;4933579;29;20047;-75
2022/04/14 00:48:53;;;;;;;12.38;8.70;;;;;;;8.87;69.30;100707.75;4922202;29;20058;-75
2022/04/14 00:51:19;;;;;;;10.98;8.20;;;;;;;8.85;69.78;100699.84;4935701;29;20043;-75
2022/04/14 00:53:44;;;;;;;13.60;8.73;;;;;;;8.81;70.01;100705.13;4939272;28;20036;-75
2022/04/14 00:56:09;;;;;;;15.43;9.20;;;;;;;8.77;69.99;100697.19;4938432;29;20068;-75
2022/04/14 00:58:35;;;;;;;18.10;9.52;;;;;;;8.72;69.50;100698.03;4937316;29;20043;-75
2022/04/14 01:01:03;;;;;;;11.23;8.68;;;;;;;8.71;69.73;100697.16;4939702;29;20035;-75
2022/04/14 01:03:28;;;;;;;15.27;11.60;;;;;;;8.68;69.93;100691.91;4933120;29;20105;-75
2022/04/14 01:05:54;;;;;;;12.55;9.55;;;;;;;8.64;69.89;100697.13;4941622;29;20039;-75
2022/04/14 01:08:19;;;;;;;13.18;8.80;;;;;;;8.62;70.66;100698.88;4934693;29;20058;-76
2022/04/14 01:10:47;;;;;;;11.48;8.60;;;;;;;8.66;71.23;100693.63;4937258;29;20094;-75
2022/04/14 01:13:17;;;;;;;14.05;8.70;;;;;;;8.71;70.81;100702.44;4937798;29;20032;-75
2022/04/14 01:15:44;;;;;;;14.75;10.18;;;;;;;8.72;70.55;100703.31;4937241;29;20113;-75
2022/04/14 01:18:10;;;;;;;10.80;8.20;;;;;;;8.71;70.44;100701.56;4937946;29;20047;-75
2022/04/14 01:20:36;;;;;;;14.10;8.93;;;;;;;8.69;71.02;100704.16;4937209;29;20126;-75
2022/04/14 01:23:03;;;;;;;13.25;7.45;;;;;;;8.69;71.45;100698.91;4932387;29;20043;-76
2022/04/14 01:25:29;;;;;;;12.48;8.85;;;;;;;8.72;71.10;100711.19;4937004;29;20047;-75
2022/04/14 01:27:54;;;;;;;12.70;8.35;;;;;;;8.74;71.06;100699.81;4939834;29;20632;-75
2022/04/14 01:30:20;;;;;;;14.35;8.73;;;;;;;8.75;71.48;100701.59;4932211;29;20058;-75
2022/04/14 01:32:46;;;;;;;12.55;8.32;;;;;;;8.76;71.39;100703.31;4939705;29;20032;-76
2022/04/14 01:35:11;;;;;;;11.75;8.80;;;;;;;8.73;71.16;100711.22;4936591;29;20039;-75
2022/04/14 01:37:37;;;;;;;15.15;8.18;;;;;;;8.69;71.01;100706.78;4934977;29;20415;-76
2022/04/14 01:40:03;;;;;;;12.95;9.52;;;;;;;8.68;70.82;100705.06;4937745;29;20042;-76
2022/04/14 01:42:29;;;;;;;14.73;9.18;;;;;;;8.67;70.58;100710.28;4934797;29;20632;-75
2022/04/14 01:44:54;;;;;;;13.55;9.80;;;;;;;8.63;70.79;100711.16;4923983;29;20027;-75
2022/04/14 01:47:19;;;;;;;14.32;9.00;;;;;;;8.62;70.97;100710.28;4936595;29;20039;-75
2022/04/14 01:49:45;;;;;;;14.63;10.73;;;;;;;8.59;70.73;100707.63;4933008;29;20039;-75
2022/04/14 01:52:10;;;;;;;12.73;9.50;;;;;;;8.56;71.01;100707.63;4936948;29;20071;-75
2022/04/14 01:54:35;;;;;;;12.40;9.45;;;;;;;8.50;70.87;100704.97;4935375;29;20414;-75
2022/04/14 01:57:01;;;;;;;12.10;9.05;;;;;;;8.51;70.77;100711.97;4938827;29;20035;-75
2022/04/14 01:59:26;;;;;;;11.90;9.00;;;;;;;8.45;71.23;100717.22;4938978;29;20192;-75
2022/04/14 02:01:51;;;;;;;13.25;9.60;;;;;;;8.40;71.71;100711.03;4935235;29;20050;-74
2022/04/14 02:04:16;;;;;;;14.85;8.77;;;;;;;8.39;71.71;100706.63;4938157;29;20106;-75
2022/04/14 02:06:42;;;;;;;14.13;9.43;;;;;;;8.37;71.46;100718.88;4938541;29;20142;-74
2022/04/14 02:09:08;;;;;;;13.40;8.80;;;;;;;8.33;72.16;100721.50;4933874;29;20514;-75
2022/04/14 02:11:33;;;;;;;15.52;9.48;;;;;;;8.23;72.42;100724.06;4930145;29;20043;-76
2022/04/14 02:13:58;;;;;;;13.25;8.73;;;;;;;8.22;72.44;100728.44;4935405;29;20043;-75
2022/04/14 02:16:24;;;;;;;12.35;9.20;;;;;;;8.23;73.06;100724.06;4934364;29;20038;-75
2022/04/14 02:18:49;;;;;;;14.60;9.48;;;;;;;8.23;72.63;100724.94;4940618;29;20039;-75
2022/04/14 02:21:14;;;;;;;12.23;9.07;;;;;;;8.21;72.18;100724.03;4934590;29;20035;-75
2022/04/14 02:23:40;;;;;;;12.75;9.65;;;;;;;8.14;71.86;100722.25;4933286;29;20039;-75
2022/04/14 02:26:06;;;;;;;14.73;10.38;;;;;;;8.11;72.71;100719.59;4920657;29;20039;-75
2022/04/14 02:28:31;;;;;;;14.50;9.48;;;;;;;8.13;72.52;100718.75;4934736;29;20509;-75
2022/04/14 02:30:56;;;;;;;13.60;9.48;;;;;;;8.16;72.27;100719.63;4934216;29;20086;-75
2022/04/14 02:33:22;;;;;;;16.08;10.82;;;;;;;8.17;72.05;100717.00;4935794;29;20048;-75
2022/04/14 02:35:47;;;;;;;14.52;9.82;;;;;;;8.14;72.38;100719.59;4933247;29;20085;-75
2022/04/14 02:38:13;;;;;;;14.18;9.27;;;;;;;8.04;72.30;100723.03;4930205;29;20032;-75
2022/04/14 02:40:38;;;;;;;19.38;10.45;;;;;;;7.94;72.46;100719.50;4916838;29;20102;-75
2022/04/14 02:43:04;;;;;;;14.38;10.20;;;;;;;7.89;72.59;100719.44;4937691;29;20086;-75
2022/04/14 02:45:29;;;;;;;14.13;9.80;;;;;;;7.83;72.77;100722.03;4935236;29;20036;-75
2022/04/14 02:47:55;;;;;;;12.98;9.05;;;;;;;7.76;73.20;100717.59;4929228;29;20077;-75
2022/04/14 02:50:21;;;;;;;14.55;9.80;;;;;;;7.71;73.42;100714.03;4936672;29;20059;-75
2022/04/14 02:52:47;;;;;;;13.52;10.25;;;;;;;7.63;73.74;100724.47;4929598;29;20071;-76
2022/04/14 02:55:12;;;;;;;14.52;8.75;;;;;;;7.60;73.54;100729.72;4932599;29;20035;-75
2022/04/14 02:57:38;;;;;;;13.30;8.63;;;;;;;7.51;73.63;100729.63;4934344;29;20046;-75
2022/04/14 03:00:05;;;;;;;13.20;9.38;;;;;;;7.45;73.57;100729.56;4933011;29;20124;-75
2022/04/14 03:02:31;;;;;;;12.63;9.27;;;;;;;7.43;74.13;100729.53;4935022;29;20046;-75
2022/04/14 03:04:58;;;;;;;14.35;9.50;;;;;;;7.41;73.87;100725.13;4933247;29;20031;-75
2022/04/14 03:07:24;;;;;;;14.27;10.27;;;;;;;7.34;74.30;100718.97;4933947;29;20470;-75
2022/04/14 03:09:49;;;;;;;17.02;12.18;;;;;;;7.31;73.93;100729.44;4939557;29;20035;-75
2022/04/14 03:12:14;;;;;;;19.05;11.50;;;;;;;7.29;73.99;100725.91;4913885;29;20447;-75
2022/04/14 03:14:40;;;;;;;17.58;11.07;;;;;;;7.25;74.42;100726.72;4911172;29;20040;-75
2022/04/14 03:17:05;;;;;;;13.88;10.35;;;;;;;7.23;74.36;100721.47;4913575;29;20418;-75
2022/04/14 03:19:31;;;;;;;16.67;11.95;;;;;;;7.15;74.46;100723.16;4933831;29;20043;-75
2022/04/14 03:21:58;;;;;;;14.82;10.75;;;;;;;7.10;75.37;100718.69;4933977;29;20036;-75
2022/04/14 03:24:23;;;;;;;18.00;11.52;;;;;;;7.14;75.09;100717.88;4935433;29;20508;-75
2022/04/14 03:26:48;;;;;;;14.20;10.73;;;;;;;7.16;75.22;100716.13;4931017;29;20039;-75
2022/04/14 03:29:14;;;;;;;12.93;9.02;;;;;;;7.15;75.32;100717.00;4936893;29;20102;-75
2022/04/14 03:31:39;;;;;;;13.07;9.57;;;;;;;7.09;75.01;100711.69;4938423;29;20044;-75
2022/04/14 03:34:04;;;;;;;13.35;10.13;;;;;;;7.00;75.64;100710.72;4931110;29;20039;-75
2022/04/14 03:36:30;;;;;;;15.00;10.93;;;;;;;6.94;76.41;100718.53;4936531;29;20079;-75
2022/04/14 03:38:55;;;;;;;15.02;11.30;;;;;;;6.95;76.26;100727.28;4935990;29;20039;-75
2022/04/14 03:41:20;;;;;;;19.33;13.18;;;;;;;6.91;76.41;100726.34;4932478;29;20128;-75
2022/04/14 03:43:46;;;;;;;13.93;9.75;;;;;;;6.94;76.47;100721.16;4933036;29;20038;-75
2022/04/14 03:46:14;;;;;;;15.48;10.52;;;;;;;6.97;76.39;100729.06;4918897;29;20047;-75
2022/04/14 03:48:41;;;;;;;14.95;10.27;;;;;;;7.01;76.93;100729.97;4914524;29;20407;-75
2022/04/14 03:51:06;;;;;;;17.45;10.68;;;;;;;6.99;76.58;100736.94;4935143;29;20040;-75
2022/04/14 03:53:31;;;;;;;16.15;10.07;;;;;;;6.97;77.35;100731.69;4932816;29;20039;-75
2022/04/14 03:55:57;;;;;;;16.67;10.63;;;;;;;7.06;77.80;100735.28;4932724;29;20031;-75
2022/04/14 03:58:22;;;;;;;17.75;11.57;;;;;;;7.13;77.12;100729.25;4936953;29;20392;-76
2022/04/14 04:00:49;;;;;;;14.90;10.20;;;;;;;7.15;76.71;100731.03;4931520;29;20040;-76
2022/04/14 04:03:14;;;;;;;16.40;10.77;;;;;;;7.13;76.21;100731.88;4921250;29;20059;-75
2022/04/14 04:05:39;;;;;;;15.52;10.07;;;;;;;7.10;76.17;100729.19;4925354;29;20483;-76
2022/04/14 04:08:05;;;;;;;16.33;10.25;;;;;;;7.11;76.72;100725.72;4937291;29;20074;-76
2022/04/14 04:10:31;;;;;;;13.68;10.15;;;;;;;7.08;76.20;100742.31;4929639;29;20554;-75
2022/04/14 04:12:56;;;;;;;14.98;10.13;;;;;;;7.01;75.91;100750.97;4936391;29;20047;-75
2022/04/14 04:15:21;;;;;;;13.20;10.02;;;;;;;6.92;77.19;100746.50;4908248;29;20067;-75
2022/04/14 04:17:47;;;;;;;15.85;10.55;;;;;;;6.94;77.72;100746.50;4924015;29;20042;-76
2022/04/14 04:20:13;;;;;;;14.05;10.30;;;;;;;7.01;77.30;100746.59;4913632;29;20040;-75
2022/04/14 04:22:38;;;;;;;15.27;10.43;;;;;;;7.06;76.79;100749.28;4929750;29;20066;-75
2022/04/14 04:25:04;;;;;;;13.88;10.02;;;;;;;7.08;76.70;100757.19;4933555;29;20063;-76
2022/04/14 04:27:30;;;;;;;14.50;9.02;;;;;;;7.08;76.72;100752.81;4934728;29;20036;-75
2022/04/14 04:29:55;;;;;;;14.27;9.98;;;;;;;7.07;76.81;100760.63;4936807;29;20066;-76
2022/04/14 04:32:20;;;;;;;15.65;10.35;;;;;;;7.08;77.08;100763.31;4936554;29;20036;-75
2022/04/14 04:34:45;;;;;;;15.27;10.32;;;;;;;7.11;77.02;100760.72;4936967;29;20039;-75
2022/04/14 04:37:11;;;;;;;14.77;9.07;;;;;;;7.16;76.70;100760.75;4936925;29;20039;-75
2022/04/14 04:39:37;;;;;;;15.43;10.38;;;;;;;7.18;76.72;100765.16;4936400;29;20050;-75
2022/04/14 04:42:02;;;;;;;15.32;10.93;;;;;;;7.16;77.25;100771.25;4932448;29;20048;-75
2022/04/14 04:44:27;;;;;;;15.18;10.27;;;;;;;7.15;77.74;100762.50;4927738;29;20071;-75
2022/04/14 04:46:53;;;;;;;16.25;10.90;;;;;;;7.24;77.30;100764.34;4925770;29;20411;-75
2022/04/14 04:49:18;;;;;;;13.00;9.63;;;;;;;7.33;76.93;100760.94;4924500;29;20558;-75
2022/04/14 04:51:43;;;;;;;16.05;8.98;;;;;;;7.33;77.18;100779.31;4927584;29;20027;-75
2022/04/14 04:54:09;;;;;;;16.10;10.25;;;;;;;7.36;77.50;100775.00;4926162;29;20048;-76
2022/04/14 04:56:35;;;;;;;16.42;10.73;;;;;;;7.38;77.36;100778.50;4919051;29;20040;-76
2022/04/14 04:59:00;;;;;;;12.52;9.60;;;;;;;7.44;77.45;100780.31;4932457;29;20130;-76
2022/04/14 05:01:25;;;;;;;13.85;9.55;;;;;;;7.52;77.24;100785.63;4918768;29;20055;-76
2022/04/14 05:03:51;;;;;;;13.15;9.25;;;;;;;7.60;76.82;100778.75;4935417;29;20047;-76
2022/04/14 05:06:17;;;;;;;16.15;10.80;;;;;;;7.71;76.52;100782.34;4935619;29;20094;-76
2022/04/14 05:08:42;;;;;;;13.05;9.55;;;;;;;7.78;76.21;100789.44;4926716;29;20039;-75
2022/04/14 05:11:08;;;;;;;13.82;10.82;;;;;;;7.83;76.47;100785.09;4935992;29;20043;-75
2022/04/14 05:13:33;;;;;;;22.50;11.88;;;;;;;7.93;76.86;100799.19;4933766;29;20032;-75
2022/04/14 05:15:58;;;;;;;15.65;10.45;;;;;;;8.04;75.94;100788.75;4936164;29;20039;-75
2022/04/14 05:18:24;;;;;;;16.40;10.43;;;;;;;8.18;75.72;100795.03;4936138;29;20090;-75
2022/04/14 05:20:49;;;;;;;16.23;11.57;;;;;;;8.31;75.30;100791.63;4936083;29;20062;-75
2022/04/14 05:23:14;;;;;;;16.52;11.35;;;;;;;8.47;75.25;100795.25;4932291;29;20044;-75
2022/04/14 05:25:40;;;;;;;19.45;11.95;;;;;;;8.59;75.26;100794.44;4935616;29;20086;-75
2022/04/14 05:28:06;;;;;;;14.95;11.13;;;;;;;8.76;74.40;100799.81;4935830;29;20122;-75
2022/04/14 05:30:31;;;;;;;14.70;12.02;;;;;;;8.89;74.33;100783.22;4935890;29;20487;-75
2022/04/14 05:32:56;;;;;;;16.35;12.25;;;;;;;9.05;74.08;100792.06;4935657;29;20040;-75
2022/04/14 05:35:22;;;;;;;21.90;15.27;;;;;;;9.17;73.70;100786.84;4935987;29;20459;-75
2022/04/14 05:37:48;;;;;;;20.88;15.13;;;;;;;9.33;73.87;100793.06;4935727;29;20466;-75
2022/04/14 05:40:13;;;;;;;27.45;20.58;;;;;;;9.47;72.96;100790.44;4935103;29;20687;-75
2022/04/14 05:42:38;;;;;;;19.27;14.32;;;;;;;9.59;72.59;100790.50;4935488;29;20070;-75
2022/04/14 05:45:04;;;;;;;20.80;16.55;;;;;;;9.72;72.36;100790.47;4935519;29;20036;-75
2022/04/14 05:47:29;;;;;;;18.13;13.90;;;;;;;9.79;72.43;100797.53;4932054;29;20043;-75
2022/04/14 05:49:55;;;;;;;21.15;14.75;;;;;;;9.93;71.88;100792.25;4915458;29;20048;-75
2022/04/14 05:52:22;;;;;;;21.10;16.60;;;;;;;9.97;71.54;100801.94;4935304;29;20043;-75
2022/04/14 05:54:47;;;;;;;26.67;19.95;;;;;;;10.05;70.99;100795.78;4935491;29;20035;-75
2022/04/14 05:57:13;;;;;;;21.50;16.50;;;;;;;10.09;71.16;100802.84;4935086;29;20485;-75
2022/04/14 05:59:39;;;;;;;19.65;13.88;;;;;;;10.23;70.31;100804.59;4935192;29;20036;-75
2022/04/14 06:02:04;;;;;;;18.77;14.60;;;;;;;10.18;71.24;100798.44;4935081;29;20043;-75
2022/04/14 06:04:30;;;;;;;19.20;15.45;;;;;;;10.29;70.41;100804.59;4935150;29;20046;-75
2022/04/14 06:06:55;;;;;;;19.65;14.73;;;;;;;10.38;70.62;100807.25;4935283;29;20043;-75
2022/04/14 06:09:20;;;;;;;21.42;14.95;;;;;;;10.44;70.58;100812.50;4935197;29;20091;-76
2022/04/14 06:11:46;;;;;;;23.67;16.40;;;;;;;10.52;69.79;100805.47;4934936;29;20074;-75
2022/04/14 06:14:11;;;;;;;21.95;15.30;;;;;;;10.63;69.54;100808.09;4934801;29;20044;-75
2022/04/14 06:16:37;;;;;;;24.48;16.75;;;;;;;10.70;69.49;100811.59;4935079;29;20047;-75
2022/04/14 06:19:03;;;;;;;22.08;16.75;;;;;;;10.72;69.46;100802.81;4934949;29;20502;-75
2022/04/14 06:21:28;;;;;;;23.75;17.63;;;;;;;10.81;69.90;100804.53;4934667;29;20078;-75
2022/04/14 06:23:53;;;;;;;24.42;17.45;;;;;;;10.90;70.05;100788.66;4917370;29;20050;-75
2022/04/14 06:26:19;;;;;;;25.58;17.73;;;;;;;11.04;69.52;100793.03;4934092;29;20040;-75
2022/04/14 06:28:46;;;;;;;30.30;17.73;;;;;;;11.20;68.98;100805.28;4935380;29;20043;-75
2022/04/14 06:31:12;;;;;;;29.30;19.83;;;;;;;11.25;68.47;100792.06;4935746;29;20047;-75
2022/04/14 06:33:37;;;;;;;27.08;18.85;;;;;;;11.44;68.25;100787.53;4934976;29;20123;-75
2022/04/14 06:36:03;;;;;;;23.20;18.17;;;;;;;11.56;68.38;100790.13;4934679;29;20096;-75
2022/04/14 06:38:28;;;;;;;25.55;18.85;;;;;;;11.80;68.63;100792.59;4934689;29;20043;-75
2022/04/14 06:40:54;;;;;;;25.83;18.65;;;;;;;12.06;66.37;100788.91;4934325;29;20039;-75
2022/04/14 06:43:20;;;;;;;25.88;18.48;;;;;;;12.27;66.20;100785.22;4932796;29;20051;-75
2022/04/14 06:45:46;;;;;;;26.35;19.23;;;;;;;12.48;65.59;100781.47;4911512;29;20144;-75
2022/04/14 06:48:11;;;;;;;24.98;18.02;;;;;;;12.70;64.69;100793.59;4934789;29;20074;-75
2022/04/14 06:50:37;;;;;;;26.63;18.98;;;;;;;12.89;64.01;100796.03;4912889;29;20051;-75
2022/04/14 06:53:02;;;;;;;27.67;19.73;;;;;;;13.07;64.06;100795.84;4933948;29;20099;-75
2022/04/14 06:55:27;;;;;;;25.63;18.30;;;;;;;13.28;62.95;100800.03;4934537;29;20043;-75
2022/04/14 06:57:53;;;;;;;26.23;18.45;;;;;;;13.40;62.39;100809.56;4934014;29;20035;-75
2022/04/14 07:00:21;;;;;;;25.63;18.27;;;;;;;13.48;62.54;100807.69;4934159;29;20074;-75
2022/04/14 07:02:51;;;;;;;23.05;18.42;;;;;;;13.58;63.01;100819.06;4930502;29;20036;-76
2022/04/14 07:05:17;;;;;;;25.17;18.50;;;;;;;13.72;62.10;100818.84;4934115;29;20040;-75
2022/04/14 07:07:42;;;;;;;23.73;17.92;;;;;;;13.67;62.22;100816.25;4934076;29;20031;-76
2022/04/14 07:10:08;;;;;;;25.52;19.10;;;;;;;13.54;62.00;100823.50;4934241;29;20453;-75
2022/04/14 07:12:35;;;;;;;25.48;19.10;;;;;;;13.53;63.27;100829.72;4959072;23;20138;-80
2022/04/14 07:15:01;;;;;;;24.60;18.85;;;;;;;13.59;62.48;100820.81;4955930;29;20046;-81
2022/04/14 07:17:26;;;;;;;25.02;18.45;;;;;;;13.62;62.22;100825.19;4960272;29;20513;-77
2022/04/14 07:19:52;;;;;;;25.33;18.52;;;;;;;13.56;61.77;100821.72;4959372;29;20051;-80
2022/04/14 07:22:18;;;;;;;23.85;17.73;;;;;;;13.68;61.81;100825.13;4959349;29;20126;-78
2022/04/14 07:24:47;;;;;;;23.75;17.48;;;;;;;13.75;61.69;100816.16;4959809;29;20039;-80
2022/04/14 07:27:13;;;;;;;21.52;16.83;;;;;;;13.77;61.52;100814.38;4960258;29;20090;-80
2022/04/14 07:29:38;;;;;;;23.52;17.08;;;;;;;13.76;61.25;100808.19;4953815;29;20047;-79
2022/04/14 07:32:04;;;;;;;23.92;17.92;;;;;;;13.83;61.44;100811.59;4957781;29;20095;-79
2022/04/14 07:34:29;;;;;;;23.92;17.65;;;;;;;13.97;60.64;100809.63;4957530;29;20406;-77
2022/04/14 07:36:54;;;;;;;19.50;15.60;;;;;;;14.14;59.84;100808.47;4956023;29;20061;-79
2022/04/14 07:39:20;;;;;;;26.45;17.70;;;;;;;14.22;59.08;100814.53;4957708;29;20048;-78
2022/04/14 07:41:45;;;;;;;25.42;18.20;;;;;;;14.15;58.62;100812.91;4958406;28;20035;-78
2022/04/14 07:44:10;;;;;;;26.85;19.23;;;;;;;14.23;59.19;100806.56;4957981;29;20502;-77
2022/04/14 07:46:38;;;;;;;27.92;19.92;;;;;;;14.31;58.54;100811.75;4958630;29;20078;-78
2022/04/14 07:49:04;;;;;;;25.67;20.55;;;;;;;14.47;58.55;100812.34;4940540;29;20398;-78
2022/04/14 07:51:29;;;;;;;20.08;15.88;;;;;;;14.71;58.22;100812.84;4956616;28;20036;-78
2022/04/14 07:53:55;;;;;;;19.92;15.90;;;;;;;14.73;58.03;100806.59;4954751;28;20042;-79
2022/04/14 07:56:22;;;;;;;20.30;16.17;;;;;;;14.86;57.58;100805.44;4954734;28;20039;-80
2022/04/14 07:58:48;;;;;;;21.95;16.58;;;;;;;14.84;57.51;100817.88;4954111;29;20075;-77
2022/04/14 08:01:13;;;;;;;20.88;15.88;;;;;;;14.86;57.50;100816.09;4954272;29;20677;-78
2022/04/14 08:03:39;;;;;;;20.42;16.77;;;;;;;15.00;57.58;100820.25;4956026;28;20048;-80
2022/04/14 08:06:05;;;;;;;25.08;20.48;;;;;;;15.03;57.70;100818.41;4961996;29;20039;-80
2022/04/14 08:08:31;;;;;;;24.65;18.85;;;;;;;15.02;57.32;100821.09;4961557;29;20121;-80
2022/04/14 08:11:01;;;;;;;23.25;18.05;;;;;;;15.08;57.26;100821.84;4961788;29;20065;-79
2022/04/14 08:13:29;;;;;;;23.33;17.13;;;;;;;15.20;56.57;100825.19;4958301;29;20179;-80
2022/04/14 08:15:56;;;;;;;21.08;15.85;;;;;;;15.21;57.09;100819.81;4961386;29;20041;-80
2022/04/14 08:18:22;;;;;;;21.88;15.55;;;;;;;15.38;57.03;100826.56;4961153;29;20043;-78
2022/04/14 08:20:47;;;;;;;20.80;15.73;;;;;;;15.48;56.66;100814.81;4962445;29;20082;-80
2022/04/14 08:23:16;;;;;;;20.23;14.65;;;;;;;15.48;56.32;100830.75;4964323;28;20055;-79
2022/04/14 08:25:42;;;;;;;20.35;15.52;;;;;;;15.53;56.12;100820.91;4965351;29;20030;-80
2022/04/14 08:28:07;;;;;;;19.70;14.88;;;;;;;15.69;55.86;100824.13;4952284;29;20513;-78
2022/04/14 08:30:35;;;;;;;24.02;15.02;;;;;;;15.63;55.34;100827.78;4941871;29;20094;-79
2022/04/14 08:33:03;;;;;;;17.83;14.20;;;;;;;15.66;55.49;100824.16;4960640;28;20090;-78
2022/04/14 08:35:31;;;;;;;19.42;15.35;;;;;;;15.69;55.34;100819.72;4958930;28;20038;-79
2022/04/14 08:37:56;;;;;;;23.77;14.57;;;;;;;15.81;55.12;100823.84;4958684;29;20090;-78
2022/04/14 08:40:22;;;;;;;19.70;15.15;;;;;;;15.90;54.34;100825.44;4957888;29;20039;-79
2022/04/14 08:43:05;;;;;;;20.17;14.40;;;;;;;16.06;54.08;100837.47;4959942;29;20066;-79
2022/04/14 08:45:34;;;;;;;18.95;14.30;;;;;;;16.08;54.34;100838.28;4957012;29;20043;-80
2022/04/14 08:48:01;;;;;;;18.02;13.65;;;;;;;16.12;54.46;100834.66;4959738;29;20046;-79
2022/04/14 08:50:27;;;;;;;18.58;13.73;;;;;;;16.33;53.99;100830.59;4957762;29;20034;-80
2022/04/14 08:52:53;;;;;;;24.85;14.35;;;;;;;16.38;53.56;100825.16;4955955;28;20091;-78
2022/04/14 08:55:19;;;;;;;17.15;13.40;;;;;;;16.46;54.26;100824.97;4958881;29;20031;-77
2022/04/14 08:57:45;;;;;;;22.05;13.00;;;;;;;16.57;53.85;100826.41;4959551;29;20039;-79
2022/04/14 09:00:13;;;;;;;16.55;12.35;;;;;;;16.83;52.72;100832.88;4959484;29;20038;-80
2022/04/14 09:02:43;;;;;;;15.52;12.65;;;;;;;16.98;53.02;100837.81;4956668;28;20494;-78
2022/04/14 09:05:09;;;;;;;16.55;13.02;;;;;;;17.06;53.92;100840.25;4961075;29;20047;-78
2022/04/14 09:07:34;;;;;;;19.98;11.38;;;;;;;17.36;49.03;100837.63;4960082;29;20070;-79
2022/04/14 09:09:59;;;;;;;12.50;9.63;;;;;;;17.68;46.13;100839.31;4959842;29;20031;-78
2022/04/14 09:12:25;;;;;;;16.60;10.73;;;;;;;17.91;45.06;100830.63;4959244;29;20039;-78
2022/04/14 09:14:50;;;;;;;14.45;10.38;;;;;;;18.07;44.76;100823.00;4957781;28;20063;-79
2022/04/14 09:17:15;;;;;;;16.10;10.73;;;;;;;18.29;44.17;100829.38;4960542;29;20039;-79
2022/04/14 09:19:41;;;;;;;16.60;10.25;;;;;;;18.69;44.44;100824.47;4959042;29;20399;-78
2022/04/14 09:22:14;;;;;;;14.45;10.45;;;;;;;18.88;43.31;100819.38;4958745;29;20457;-78
2022/04/14 09:24:40;;;;;;;15.95;10.57;;;;;;;18.92;43.11;100816.53;4958828;29;20051;-79
2022/04/14 09:27:06;;;;;;;16.00;10.40;;;;;;;19.01;43.66;100826.03;4955719;28;20027;-80
2022/04/14 09:29:32;;;;;;;14.90;9.77;;;;;;;19.09;43.18;100840.00;4958231;29;20082;-78
2022/04/14 09:31:57;;;;;;;12.65;8.80;;;;;;;18.73;44.36;100852.84;4955731;29;20035;-79
2022/04/14 09:34:45;;;;;;;12.65;8.05;;;;;;;18.38;45.15;100853.13;4958253;29;20150;-79
2022/04/14 09:37:11;;;;;;;11.77;8.38;;;;;;;18.51;44.64;100842.88;4954797;29;20613;-80
2022/04/14 09:39:55;;;;;;;11.10;7.30;;;;;;;18.72;44.89;100841.28;4954912;29;20644;-81
2022/04/14 09:42:21;;;;;;;11.30;7.35;;;;;;;18.90;45.04;100830.91;4956060;29;20458;-79
2022/04/14 09:44:48;;;;;;;10.75;7.05;;;;;;;19.17;44.57;100843.25;4957843;29;20094;-80
2022/04/14 09:47:22;;;;;;;11.45;8.27;;;;;;;19.05;44.60;100833.91;4958003;29;20071;-79
2022/04/14 09:49:47;;;;;;;53.30;8.77;;;;;;;19.14;44.33;100832.66;4958679;29;20043;-78
2022/04/14 09:52:13;;;;;;;9.43;6.88;;;;;;;19.39;44.57;100829.97;4958463;28;20064;-79
2022/04/14 09:54:39;;;;;;;9.90;7.40;;;;;;;19.48;43.44;100816.22;4957948;29;20413;-79
2022/04/14 09:57:04;;;;;;;12.40;7.20;;;;;;;19.65;44.42;100831.63;4958282;29;20082;-79
2022/04/14 09:59:30;;;;;;;8.88;6.50;;;;;;;19.87;43.95;100829.00;4958787;29;20042;-79
2022/04/14 10:02:15;;;;;;;8.05;6.43;;;;;;;19.96;42.69;100826.88;4957760;29;20035;-80
2022/04/14 10:04:45;;;;;;;10.13;7.03;;;;;;;20.02;43.16;100830.22;4956740;29;20065;-80
2022/04/14 10:07:14;;;;;;;9.32;5.78;;;;;;;20.32;42.69;100827.19;4958998;29;20709;-79
2022/04/14 10:09:44;;;;;;;11.82;7.00;;;;;;;20.39;42.02;100826.00;4956100;29;20051;-80
2022/04/14 10:12:19;;;;;;;9.13;6.20;;;;;;;20.84;42.85;100832.16;4957210;29;20130;-80
2022/04/14 10:15:03;;;;;;;10.10;6.32;;;;;;;21.26;41.03;100826.66;4954925;29;20118;-79
2022/04/14 10:17:40;;;;;;;8.90;6.05;;;;;;;21.66;39.92;100820.31;4956733;29;20039;-80
2022/04/14 10:20:09;;;;;;;8.60;6.43;;;;;;;21.93;39.84;100814.59;4957100;29;20039;-79
2022/04/14 10:22:36;;;;;;;9.73;5.88;;;;;;;22.17;39.89;100814.31;4949253;28;20035;-80
2022/04/14 10:25:02;;;;;;;6.85;4.93;;;;;;;22.22;39.34;100820.38;4948163;28;20043;-80
2022/04/14 10:27:29;;;;;;;7.88;5.03;;;;;;;22.20;40.24;100812.38;4935758;28;20058;-80
2022/04/14 10:29:55;;;;;;;7.55;5.10;;;;;;;22.11;39.76;100812.78;4952154;28;20038;-81
2022/04/14 10:32:21;;;;;;;7.53;5.60;;;;;;;21.97;39.83;100809.94;4950667;28;20043;-80
2022/04/14 10:34:46;;;;;;;8.38;5.38;;;;;;;21.93;40.45;100816.38;4952574;28;20031;-80
2022/04/14 10:37:27;;;;;;;8.23;5.43;;;;;;;21.94;40.25;100804.72;4955918;28;20058;-80
2022/04/14 10:39:55;;;;;;;7.20;4.93;;;;;;;22.03;39.63;100810.50;4956475;28;20509;-79
2022/04/14 10:42:29;;;;;;;9.63;5.10;;;;;;;21.92;40.82;100811.97;4953716;29;20421;-80
2022/04/14 10:44:55;;;;;;;7.32;4.53;;;;;;;22.09;40.63;100809.34;4952200;29;20122;-80
2022/04/14 10:47:42;;;;;;;6.75;4.13;;;;;;;21.89;40.75;100819.22;4955980;29;20039;-79
2022/04/14 10:50:22;;;;;;;6.30;3.50;;;;;;;21.71;41.52;100817.44;4939240;29;20049;-80
2022/04/14 10:53:08;;;;;;;8.65;3.97;;;;;;;21.42;42.41;100824.19;4952692;29;20035;-80
2022/04/14 10:55:43;;;;;;;6.90;3.83;;;;;;;21.17;44.11;100819.06;4950632;29;20050;-82
2022/04/14 10:58:27;;;;;;;7.18;4.15;;;;;;;21.81;41.82;100820.56;4956023;29;20050;-77
2022/04/14 11:00:54;;;;;;;6.93;4.18;;;;;;;22.29;41.43;100811.91;4955268;29;20043;-78
2022/04/14 11:03:19;;;;;;;8.18;3.70;;;;;;;22.68;40.43;100816.19;4956889;29;20439;-77
2022/04/14 11:05:50;;;;;;;8.77;3.40;;;;;;;22.83;40.25;100821.72;4955464;29;20049;-78
2022/04/14 11:08:24;;;;;;;6.57;2.65;;;;;;;22.15;42.07;100818.91;4957923;29;20031;-77
2022/04/14 11:11:02;;;;;;;6.82;2.92;;;;;;;21.58;43.62;100829.69;4957943;29;20110;-79
2022/04/14 11:13:52;;;;;;;4.30;2.58;;;;;;;21.67;43.00;100822.09;4957879;29;20167;-79